sensor_id;sensor_type;location;lat;lon;timestamp;P1;durP1;ratioP1;P2;durP2;ratioP2
65665;SDS011;52365;47.464;18.976;2023-06-22T00:00:04;7.57;;;3.50;;
65665;SDS011;52365;47.464;18.976;2023-06-22T00:00:32;8.52;;;3.55;;
65665;SDS011;52365;47.464;18.976;2023-06-22T00:00:53;8.68;;;3.75;;
65665;SDS011;52365;47.464;18.976;2023-06-22T00:01:14;9.27;;;3.83;;
65665;SDS011;52365;47.464;18.976;2023-06-22T00:01:35;9.70;;;3.72;;
65665;SDS011;52365;47.464;18.976;2023-06-22T00:01:56;8.38;;;3.67;;
65665;SDS011;52365;47.464;18.976;2023-06-22T00:02:17;8.80;;;3.70;;
65665;SDS011;52365;47.464;18.976;2023-06-22T00:02:39;8.55;;;3.70;;
65665;SDS011;52365;47.464;18.976;2023-06-22T00:03:00;8.23;;;3.55;;
65665;SDS011;52365;47.464;18.976;2023-06-22T00:03:21;10.77;;;3.87;;
65665;SDS011;52365;47.464;18.976;2023-06-22T00:03:43;9.23;;;3.25;;
65665;SDS011;52365;47.464;18.976;2023-06-22T00:04:04;7.45;;;3.40;;
65665;SDS011;52365;47.464;18.976;2023-06-22T00:04:25;10.77;;;3.70;;
65665;SDS011;52365;47.464;18.976;2023-06-22T00:04:46;9.80;;;3.70;;
65665;SDS011;52365;47.464;18.976;2023-06-22T00:05:07;10.32;;;3.70;;
65665;SDS011;52365;47.464;18.976;2023-06-22T00:05:28;8.35;;;3.28;;
65665;SDS011;52365;47.464;18.976;2023-06-22T00:05:49;9.80;;;3.40;;
65665;SDS011;52365;47.464;18.976;2023-06-22T00:06:11;8.35;;;3.78;;
65665;SDS011;52365;47.464;18.976;2023-06-22T00:06:32;7.93;;;3.42;;
65665;SDS011;52365;47.464;18.976;2023-06-22T00:06:53;8.43;;;3.40;;
65665;SDS011;52365;47.464;18.976;2023-06-22T00:07:14;8.63;;;3.80;;
65665;SDS011;52365;47.464;18.976;2023-06-22T00:07:35;9.60;;;3.65;;
65665;SDS011;52365;47.464;18.976;2023-06-22T00:07:56;9.13;;;3.55;;
65665;SDS011;52365;47.464;18.976;2023-06-22T00:08:17;8.25;;;3.42;;
65665;SDS011;52365;47.464;18.976;2023-06-22T00:08:39;9.50;;;3.37;;
65665;SDS011;52365;47.464;18.976;2023-06-22T00:09:00;9.20;;;3.20;;
65665;SDS011;52365;47.464;18.976;2023-06-22T00:09:21;9.30;;;3.47;;
65665;SDS011;52365;47.464;18.976;2023-06-22T00:09:42;10.10;;;3.85;;
65665;SDS011;52365;47.464;18.976;2023-06-22T00:10:04;9.85;;;3.62;;
65665;SDS011;52365;47.464;18.976;2023-06-22T00:10:26;10.52;;;3.90;;
65665;SDS011;52365;47.464;18.976;2023-06-22T00:10:47;10.13;;;3.40;;
65665;SDS011;52365;47.464;18.976;2023-06-22T00:11:08;8.93;;;3.67;;
65665;SDS011;52365;47.464;18.976;2023-06-22T00:11:29;9.13;;;3.65;;
65665;SDS011;52365;47.464;18.976;2023-06-22T00:11:52;8.70;;;3.50;;
65665;SDS011;52365;47.464;18.976;2023-06-22T00:12:13;9.18;;;3.70;;
65665;SDS011;52365;47.464;18.976;2023-06-22T00:12:34;8.55;;;3.47;;
65665;SDS011;52365;47.464;18.976;2023-06-22T00:12:54;8.73;;;3.50;;
65665;SDS011;52365;47.464;18.976;2023-06-22T00:13:16;8.57;;;3.50;;
65665;SDS011;52365;47.464;18.976;2023-06-22T00:13:38;8.68;;;3.62;;
65665;SDS011;52365;47.464;18.976;2023-06-22T00:13:59;8.52;;;3.70;;
65665;SDS011;52365;47.464;18.976;2023-06-22T00:14:20;9.32;;;3.70;;
65665;SDS011;52365;47.464;18.976;2023-06-22T00:14:41;10.65;;;3.80;;
65665;SDS011;52365;47.464;18.976;2023-06-22T00:15:02;10.05;;;4.03;;
65665;SDS011;52365;47.464;18.976;2023-06-22T00:15:24;8.68;;;3.58;;
65665;SDS011;52365;47.464;18.976;2023-06-22T00:15:45;7.62;;;3.40;;
65665;SDS011;52365;47.464;18.976;2023-06-22T00:16:06;7.70;;;3.42;;
65665;SDS011;52365;47.464;18.976;2023-06-22T00:16:27;10.13;;;3.72;;
65665;SDS011;52365;47.464;18.976;2023-06-22T00:16:48;6.53;;;3.53;;
65665;SDS011;52365;47.464;18.976;2023-06-22T00:17:09;8.35;;;3.60;;
65665;SDS011;52365;47.464;18.976;2023-06-22T00:17:30;8.93;;;3.72;;
65665;SDS011;52365;47.464;18.976;2023-06-22T00:17:51;7.40;;;3.50;;
65665;SDS011;52365;47.464;18.976;2023-06-22T00:18:12;9.25;;;3.42;;
65665;SDS011;52365;47.464;18.976;2023-06-22T00:18:33;10.73;;;3.80;;
65665;SDS011;52365;47.464;18.976;2023-06-22T00:18:54;8.60;;;3.60;;
65665;SDS011;52365;47.464;18.976;2023-06-22T00:19:15;10.00;;;3.67;;
65665;SDS011;52365;47.464;18.976;2023-06-22T00:19:36;10.77;;;3.83;;
65665;SDS011;52365;47.464;18.976;2023-06-22T00:20:01;11.12;;;3.45;;
65665;SDS011;52365;47.464;18.976;2023-06-22T00:20:22;8.07;;;3.42;;
65665;SDS011;52365;47.464;18.976;2023-06-22T00:20:43;12.07;;;3.58;;
65665;SDS011;52365;47.464;18.976;2023-06-22T00:21:06;8.55;;;3.50;;
65665;SDS011;52365;47.464;18.976;2023-06-22T00:21:28;8.85;;;3.60;;
65665;SDS011;52365;47.464;18.976;2023-06-22T00:21:50;9.15;;;3.37;;
65665;SDS011;52365;47.464;18.976;2023-06-22T00:22:14;10.55;;;3.37;;
65665;SDS011;52365;47.464;18.976;2023-06-22T00:22:37;10.90;;;3.40;;
65665;SDS011;52365;47.464;18.976;2023-06-22T00:22:59;8.68;;;3.58;;
65665;SDS011;52365;47.464;18.976;2023-06-22T00:23:20;8.70;;;3.80;;
65665;SDS011;52365;47.464;18.976;2023-06-22T00:23:41;10.25;;;3.62;;
65665;SDS011;52365;47.464;18.976;2023-06-22T00:24:03;8.07;;;3.45;;
65665;SDS011;52365;47.464;18.976;2023-06-22T00:24:25;9.82;;;3.67;;
65665;SDS011;52365;47.464;18.976;2023-06-22T00:24:46;8.00;;;3.55;;
65665;SDS011;52365;47.464;18.976;2023-06-22T00:25:07;8.60;;;3.47;;
65665;SDS011;52365;47.464;18.976;2023-06-22T00:25:28;10.32;;;3.35;;
65665;SDS011;52365;47.464;18.976;2023-06-22T00:25:49;8.70;;;3.80;;
65665;SDS011;52365;47.464;18.976;2023-06-22T00:26:10;8.23;;;3.30;;
65665;SDS011;52365;47.464;18.976;2023-06-22T00:26:32;10.15;;;3.60;;
65665;SDS011;52365;47.464;18.976;2023-06-22T00:26:53;8.27;;;3.50;;
65665;SDS011;52365;47.464;18.976;2023-06-22T00:27:13;9.15;;;3.72;;
65665;SDS011;52365;47.464;18.976;2023-06-22T00:27:35;10.50;;;3.85;;
65665;SDS011;52365;47.464;18.976;2023-06-22T00:27:56;9.02;;;3.50;;
65665;SDS011;52365;47.464;18.976;2023-06-22T00:28:17;7.37;;;3.33;;
65665;SDS011;52365;47.464;18.976;2023-06-22T00:28:38;7.30;;;3.85;;
65665;SDS011;52365;47.464;18.976;2023-06-22T00:28:59;8.50;;;3.75;;
65665;SDS011;52365;47.464;18.976;2023-06-22T00:29:20;9.10;;;3.78;;
65665;SDS011;52365;47.464;18.976;2023-06-22T00:29:41;8.68;;;3.85;;
65665;SDS011;52365;47.464;18.976;2023-06-22T00:30:03;6.85;;;3.90;;
65665;SDS011;52365;47.464;18.976;2023-06-22T00:30:24;9.23;;;3.67;;
65665;SDS011;52365;47.464;18.976;2023-06-22T00:30:45;8.07;;;3.67;;
65665;SDS011;52365;47.464;18.976;2023-06-22T00:31:06;9.43;;;3.72;;
65665;SDS011;52365;47.464;18.976;2023-06-22T00:31:27;8.85;;;3.80;;
65665;SDS011;52365;47.464;18.976;2023-06-22T00:31:48;8.98;;;3.90;;
65665;SDS011;52365;47.464;18.976;2023-06-22T00:32:09;9.50;;;3.80;;
65665;SDS011;52365;47.464;18.976;2023-06-22T00:32:30;10.82;;;3.90;;
65665;SDS011;52365;47.464;18.976;2023-06-22T00:32:51;8.82;;;3.65;;
65665;SDS011;52365;47.464;18.976;2023-06-22T00:33:12;7.40;;;3.62;;
65665;SDS011;52365;47.464;18.976;2023-06-22T00:33:33;9.90;;;4.00;;
65665;SDS011;52365;47.464;18.976;2023-06-22T00:33:54;9.60;;;3.90;;
65665;SDS011;52365;47.464;18.976;2023-06-22T00:34:15;7.13;;;3.70;;
65665;SDS011;52365;47.464;18.976;2023-06-22T00:34:36;7.97;;;3.35;;
65665;SDS011;52365;47.464;18.976;2023-06-22T00:34:57;8.02;;;3.65;;
65665;SDS011;52365;47.464;18.976;2023-06-22T00:35:18;12.57;;;4.07;;
65665;SDS011;52365;47.464;18.976;2023-06-22T00:35:39;10.85;;;3.87;;
65665;SDS011;52365;47.464;18.976;2023-06-22T00:36:01;10.32;;;3.97;;
65665;SDS011;52365;47.464;18.976;2023-06-22T00:36:23;10.07;;;4.05;;
65665;SDS011;52365;47.464;18.976;2023-06-22T00:36:45;10.15;;;4.10;;
65665;SDS011;52365;47.464;18.976;2023-06-22T00:37:06;8.55;;;4.10;;
65665;SDS011;52365;47.464;18.976;2023-06-22T00:37:27;9.15;;;4.20;;
65665;SDS011;52365;47.464;18.976;2023-06-22T00:37:50;9.85;;;3.80;;
65665;SDS011;52365;47.464;18.976;2023-06-22T00:38:12;9.77;;;3.60;;
65665;SDS011;52365;47.464;18.976;2023-06-22T00:38:33;8.75;;;3.60;;
65665;SDS011;52365;47.464;18.976;2023-06-22T00:38:55;10.07;;;3.78;;
65665;SDS011;52365;47.464;18.976;2023-06-22T00:39:16;11.95;;;4.05;;
65665;SDS011;52365;47.464;18.976;2023-06-22T00:39:37;8.68;;;4.10;;
65665;SDS011;52365;47.464;18.976;2023-06-22T00:39:58;8.57;;;3.78;;
65665;SDS011;52365;47.464;18.976;2023-06-22T00:40:19;8.23;;;3.75;;
65665;SDS011;52365;47.464;18.976;2023-06-22T00:40:42;8.45;;;4.20;;
65665;SDS011;52365;47.464;18.976;2023-06-22T00:41:03;7.20;;;3.92;;
65665;SDS011;52365;47.464;18.976;2023-06-22T00:41:24;9.75;;;4.15;;
65665;SDS011;52365;47.464;18.976;2023-06-22T00:41:49;8.70;;;3.85;;
65665;SDS011;52365;47.464;18.976;2023-06-22T00:42:10;9.25;;;3.97;;
65665;SDS011;52365;47.464;18.976;2023-06-22T00:42:31;9.75;;;4.03;;
65665;SDS011;52365;47.464;18.976;2023-06-22T00:42:52;8.63;;;3.87;;
65665;SDS011;52365;47.464;18.976;2023-06-22T00:43:13;9.10;;;4.03;;
65665;SDS011;52365;47.464;18.976;2023-06-22T00:43:34;8.45;;;3.83;;
65665;SDS011;52365;47.464;18.976;2023-06-22T00:43:55;9.20;;;3.87;;
65665;SDS011;52365;47.464;18.976;2023-06-22T00:44:16;8.23;;;3.92;;
65665;SDS011;52365;47.464;18.976;2023-06-22T00:44:37;8.10;;;3.90;;
65665;SDS011;52365;47.464;18.976;2023-06-22T00:44:58;9.32;;;4.10;;
65665;SDS011;52365;47.464;18.976;2023-06-22T00:45:19;9.02;;;4.00;;
65665;SDS011;52365;47.464;18.976;2023-06-22T00:45:40;7.40;;;3.95;;
65665;SDS011;52365;47.464;18.976;2023-06-22T00:46:01;8.52;;;3.87;;
65665;SDS011;52365;47.464;18.976;2023-06-22T00:46:22;9.30;;;4.00;;
65665;SDS011;52365;47.464;18.976;2023-06-22T00:46:43;7.70;;;3.60;;
65665;SDS011;52365;47.464;18.976;2023-06-22T00:47:05;9.63;;;4.25;;
65665;SDS011;52365;47.464;18.976;2023-06-22T00:47:27;9.43;;;4.10;;
65665;SDS011;52365;47.464;18.976;2023-06-22T00:47:49;9.13;;;3.85;;
65665;SDS011;52365;47.464;18.976;2023-06-22T00:48:12;7.32;;;3.78;;
65665;SDS011;52365;47.464;18.976;2023-06-22T00:48:34;7.32;;;3.53;;
65665;SDS011;52365;47.464;18.976;2023-06-22T00:48:57;8.88;;;4.05;;
65665;SDS011;52365;47.464;18.976;2023-06-22T00:49:18;8.30;;;4.07;;
65665;SDS011;52365;47.464;18.976;2023-06-22T00:49:39;9.05;;;4.10;;
65665;SDS011;52365;47.464;18.976;2023-06-22T00:50:00;9.05;;;4.12;;
65665;SDS011;52365;47.464;18.976;2023-06-22T00:50:23;9.10;;;3.85;;
65665;SDS011;52365;47.464;18.976;2023-06-22T00:50:46;7.75;;;3.75;;
65665;SDS011;52365;47.464;18.976;2023-06-22T00:51:09;8.52;;;3.80;;
65665;SDS011;52365;47.464;18.976;2023-06-22T00:51:31;9.15;;;4.03;;
65665;SDS011;52365;47.464;18.976;2023-06-22T00:51:52;8.73;;;3.72;;
65665;SDS011;52365;47.464;18.976;2023-06-22T00:52:13;7.53;;;3.72;;
65665;SDS011;52365;47.464;18.976;2023-06-22T00:52:41;8.50;;;3.80;;
65665;SDS011;52365;47.464;18.976;2023-06-22T00:53:05;8.48;;;3.80;;
65665;SDS011;52365;47.464;18.976;2023-06-22T00:53:30;9.00;;;4.20;;
65665;SDS011;52365;47.464;18.976;2023-06-22T00:53:55;8.25;;;3.90;;
65665;SDS011;52365;47.464;18.976;2023-06-22T00:54:16;8.65;;;3.80;;
65665;SDS011;52365;47.464;18.976;2023-06-22T00:54:45;7.72;;;3.83;;
65665;SDS011;52365;47.464;18.976;2023-06-22T00:55:06;10.32;;;4.00;;
65665;SDS011;52365;47.464;18.976;2023-06-22T00:55:27;10.23;;;3.75;;
65665;SDS011;52365;47.464;18.976;2023-06-22T00:55:48;9.20;;;3.72;;
65665;SDS011;52365;47.464;18.976;2023-06-22T00:56:13;10.45;;;3.80;;
65665;SDS011;52365;47.464;18.976;2023-06-22T00:56:34;8.68;;;3.80;;
65665;SDS011;52365;47.464;18.976;2023-06-22T00:56:58;9.73;;;3.58;;
65665;SDS011;52365;47.464;18.976;2023-06-22T00:57:19;7.60;;;3.80;;
65665;SDS011;52365;47.464;18.976;2023-06-22T00:57:40;5.70;;;3.40;;
65665;SDS011;52365;47.464;18.976;2023-06-22T00:58:01;8.10;;;3.80;;
65665;SDS011;52365;47.464;18.976;2023-06-22T00:58:22;9.73;;;4.12;;
65665;SDS011;52365;47.464;18.976;2023-06-22T00:58:46;9.80;;;3.60;;
65665;SDS011;52365;47.464;18.976;2023-06-22T00:59:07;8.60;;;4.00;;
65665;SDS011;52365;47.464;18.976;2023-06-22T00:59:32;8.18;;;3.97;;
65665;SDS011;52365;47.464;18.976;2023-06-22T00:59:54;8.82;;;4.00;;
65665;SDS011;52365;47.464;18.976;2023-06-22T01:00:15;7.78;;;3.58;;
65665;SDS011;52365;47.464;18.976;2023-06-22T01:00:38;9.43;;;3.80;;
65665;SDS011;52365;47.464;18.976;2023-06-22T01:01:00;8.45;;;4.00;;
65665;SDS011;52365;47.464;18.976;2023-06-22T01:01:21;9.38;;;4.43;;
65665;SDS011;52365;47.464;18.976;2023-06-22T01:01:43;11.43;;;4.28;;
65665;SDS011;52365;47.464;18.976;2023-06-22T01:02:05;10.10;;;3.90;;
65665;SDS011;52365;47.464;18.976;2023-06-22T01:02:26;8.02;;;3.75;;
65665;SDS011;52365;47.464;18.976;2023-06-22T01:02:47;8.15;;;4.00;;
65665;SDS011;52365;47.464;18.976;2023-06-22T01:03:12;9.07;;;4.20;;
65665;SDS011;52365;47.464;18.976;2023-06-22T01:03:33;9.30;;;4.10;;
65665;SDS011;52365;47.464;18.976;2023-06-22T01:03:54;7.97;;;3.70;;
65665;SDS011;52365;47.464;18.976;2023-06-22T01:04:18;9.07;;;4.10;;
65665;SDS011;52365;47.464;18.976;2023-06-22T01:04:39;8.93;;;4.20;;
65665;SDS011;52365;47.464;18.976;2023-06-22T01:05:00;7.78;;;4.05;;
65665;SDS011;52365;47.464;18.976;2023-06-22T01:05:22;8.27;;;4.03;;
65665;SDS011;52365;47.464;18.976;2023-06-22T01:05:43;8.38;;;4.07;;
65665;SDS011;52365;47.464;18.976;2023-06-22T01:06:08;8.57;;;4.50;;
65665;SDS011;52365;47.464;18.976;2023-06-22T01:06:38;10.13;;;4.35;;
65665;SDS011;52365;47.464;18.976;2023-06-22T01:07:06;9.13;;;4.18;;
65665;SDS011;52365;47.464;18.976;2023-06-22T01:09:06;10.77;;;4.45;;
65665;SDS011;52365;47.464;18.976;2023-06-22T01:09:45;8.63;;;4.20;;
65665;SDS011;52365;47.464;18.976;2023-06-22T01:10:14;8.98;;;4.72;;
65665;SDS011;52365;47.464;18.976;2023-06-22T01:10:47;10.13;;;4.78;;
65665;SDS011;52365;47.464;18.976;2023-06-22T01:11:37;9.02;;;4.50;;
65665;SDS011;52365;47.464;18.976;2023-06-22T01:12:04;9.18;;;4.35;;
65665;SDS011;52365;47.464;18.976;2023-06-22T01:12:29;11.93;;;4.80;;
65665;SDS011;52365;47.464;18.976;2023-06-22T01:12:55;10.35;;;4.85;;
65665;SDS011;52365;47.464;18.976;2023-06-22T01:14:55;7.97;;;4.50;;
65665;SDS011;52365;47.464;18.976;2023-06-22T01:15:39;11.00;;;4.60;;
65665;SDS011;52365;47.464;18.976;2023-06-22T01:16:50;9.40;;;4.95;;
65665;SDS011;52365;47.464;18.976;2023-06-22T01:16:55;10.23;;;5.10;;
65665;SDS011;52365;47.464;18.976;2023-06-22T01:17:17;8.55;;;4.57;;
65665;SDS011;52365;47.464;18.976;2023-06-22T01:17:40;9.40;;;4.53;;
65665;SDS011;52365;47.464;18.976;2023-06-22T01:18:04;9.73;;;4.55;;
65665;SDS011;52365;47.464;18.976;2023-06-22T01:18:26;10.23;;;4.53;;
65665;SDS011;52365;47.464;18.976;2023-06-22T01:18:50;11.77;;;4.93;;
65665;SDS011;52365;47.464;18.976;2023-06-22T01:20:08;9.27;;;4.78;;
65665;SDS011;52365;47.464;18.976;2023-06-22T01:20:33;8.38;;;4.95;;
65665;SDS011;52365;47.464;18.976;2023-06-22T01:20:56;10.73;;;4.60;;
65665;SDS011;52365;47.464;18.976;2023-06-22T01:21:19;10.82;;;4.75;;
65665;SDS011;52365;47.464;18.976;2023-06-22T01:21:42;9.75;;;4.80;;
65665;SDS011;52365;47.464;18.976;2023-06-22T01:22:05;9.85;;;4.62;;
65665;SDS011;52365;47.464;18.976;2023-06-22T01:22:33;8.70;;;4.70;;
65665;SDS011;52365;47.464;18.976;2023-06-22T01:23:54;10.43;;;4.97;;
65665;SDS011;52365;47.464;18.976;2023-06-22T01:25:38;10.35;;;4.60;;
65665;SDS011;52365;47.464;18.976;2023-06-22T01:26:02;7.70;;;4.30;;
65665;SDS011;52365;47.464;18.976;2023-06-22T01:29:16;10.20;;;4.80;;
65665;SDS011;52365;47.464;18.976;2023-06-22T01:29:38;7.80;;;4.60;;
65665;SDS011;52365;47.464;18.976;2023-06-22T01:30:00;8.15;;;4.60;;
65665;SDS011;52365;47.464;18.976;2023-06-22T01:30:23;9.50;;;4.60;;
65665;SDS011;52365;47.464;18.976;2023-06-22T01:30:46;10.73;;;4.80;;
65665;SDS011;52365;47.464;18.976;2023-06-22T01:31:10;10.65;;;4.65;;
65665;SDS011;52365;47.464;18.976;2023-06-22T01:31:35;9.82;;;4.82;;
65665;SDS011;52365;47.464;18.976;2023-06-22T01:31:56;10.05;;;4.75;;
65665;SDS011;52365;47.464;18.976;2023-06-22T01:32:18;10.55;;;4.65;;
65665;SDS011;52365;47.464;18.976;2023-06-22T01:32:40;8.40;;;4.80;;
65665;SDS011;52365;47.464;18.976;2023-06-22T01:33:02;9.57;;;4.53;;
65665;SDS011;52365;47.464;18.976;2023-06-22T01:33:25;10.30;;;4.60;;
65665;SDS011;52365;47.464;18.976;2023-06-22T01:33:54;11.23;;;4.62;;
65665;SDS011;52365;47.464;18.976;2023-06-22T01:34:18;8.75;;;4.65;;
65665;SDS011;52365;47.464;18.976;2023-06-22T01:34:40;12.88;;;5.05;;
65665;SDS011;52365;47.464;18.976;2023-06-22T01:35:06;10.70;;;4.93;;
65665;SDS011;52365;47.464;18.976;2023-06-22T01:35:29;11.25;;;5.10;;
65665;SDS011;52365;47.464;18.976;2023-06-22T01:35:51;9.70;;;4.72;;
65665;SDS011;52365;47.464;18.976;2023-06-22T01:36:12;11.52;;;4.65;;
65665;SDS011;52365;47.464;18.976;2023-06-22T01:36:35;10.32;;;4.75;;
65665;SDS011;52365;47.464;18.976;2023-06-22T01:36:57;9.73;;;4.85;;
65665;SDS011;52365;47.464;18.976;2023-06-22T01:37:19;10.68;;;4.68;;
65665;SDS011;52365;47.464;18.976;2023-06-22T01:37:40;10.27;;;4.43;;
65665;SDS011;52365;47.464;18.976;2023-06-22T01:38:01;8.77;;;4.40;;
65665;SDS011;52365;47.464;18.976;2023-06-22T01:38:23;10.30;;;4.75;;
65665;SDS011;52365;47.464;18.976;2023-06-22T01:38:45;11.52;;;4.78;;
65665;SDS011;52365;47.464;18.976;2023-06-22T01:39:08;8.90;;;4.60;;
65665;SDS011;52365;47.464;18.976;2023-06-22T01:39:30;9.10;;;4.50;;
65665;SDS011;52365;47.464;18.976;2023-06-22T01:39:53;10.23;;;4.87;;
65665;SDS011;52365;47.464;18.976;2023-06-22T01:40:15;8.30;;;4.70;;
65665;SDS011;52365;47.464;18.976;2023-06-22T01:40:38;10.02;;;4.85;;
65665;SDS011;52365;47.464;18.976;2023-06-22T01:40:59;11.68;;;4.70;;
65665;SDS011;52365;47.464;18.976;2023-06-22T01:41:24;11.05;;;4.87;;
65665;SDS011;52365;47.464;18.976;2023-06-22T01:41:47;9.57;;;4.72;;
65665;SDS011;52365;47.464;18.976;2023-06-22T01:42:08;7.60;;;4.70;;
65665;SDS011;52365;47.464;18.976;2023-06-22T01:42:31;9.35;;;4.68;;
65665;SDS011;52365;47.464;18.976;2023-06-22T01:42:52;9.10;;;4.43;;
65665;SDS011;52365;47.464;18.976;2023-06-22T01:43:14;8.20;;;4.78;;
65665;SDS011;52365;47.464;18.976;2023-06-22T01:43:35;9.85;;;4.87;;
65665;SDS011;52365;47.464;18.976;2023-06-22T01:43:57;9.93;;;4.80;;
65665;SDS011;52365;47.464;18.976;2023-06-22T01:44:19;9.37;;;4.40;;
65665;SDS011;52365;47.464;18.976;2023-06-22T01:44:42;8.10;;;4.43;;
65665;SDS011;52365;47.464;18.976;2023-06-22T01:45:04;10.02;;;4.68;;
65665;SDS011;52365;47.464;18.976;2023-06-22T01:45:27;10.57;;;5.00;;
65665;SDS011;52365;47.464;18.976;2023-06-22T01:45:48;10.00;;;4.75;;
65665;SDS011;52365;47.464;18.976;2023-06-22T01:46:10;8.30;;;4.70;;
65665;SDS011;52365;47.464;18.976;2023-06-22T01:46:33;10.85;;;5.00;;
65665;SDS011;52365;47.464;18.976;2023-06-22T01:46:55;9.30;;;4.65;;
65665;SDS011;52365;47.464;18.976;2023-06-22T01:47:17;9.65;;;4.62;;
65665;SDS011;52365;47.464;18.976;2023-06-22T01:47:38;11.68;;;5.10;;
65665;SDS011;52365;47.464;18.976;2023-06-22T01:47:59;10.10;;;5.20;;
65665;SDS011;52365;47.464;18.976;2023-06-22T01:48:21;8.45;;;5.05;;
65665;SDS011;52365;47.464;18.976;2023-06-22T01:48:43;9.00;;;4.80;;
65665;SDS011;52365;47.464;18.976;2023-06-22T01:49:04;9.20;;;4.60;;
65665;SDS011;52365;47.464;18.976;2023-06-22T01:49:25;11.68;;;4.60;;
65665;SDS011;52365;47.464;18.976;2023-06-22T01:49:47;10.38;;;4.43;;
65665;SDS011;52365;47.464;18.976;2023-06-22T01:50:09;10.38;;;4.60;;
65665;SDS011;52365;47.464;18.976;2023-06-22T01:50:30;9.63;;;4.70;;
65665;SDS011;52365;47.464;18.976;2023-06-22T01:50:52;11.20;;;4.62;;
65665;SDS011;52365;47.464;18.976;2023-06-22T01:51:14;10.88;;;4.50;;
65665;SDS011;52365;47.464;18.976;2023-06-22T01:51:35;10.38;;;4.43;;
65665;SDS011;52365;47.464;18.976;2023-06-22T01:51:56;8.55;;;4.40;;
65665;SDS011;52365;47.464;18.976;2023-06-22T01:52:18;10.45;;;4.80;;
65665;SDS011;52365;47.464;18.976;2023-06-22T01:52:41;10.32;;;4.70;;
65665;SDS011;52365;47.464;18.976;2023-06-22T01:53:02;7.95;;;4.37;;
65665;SDS011;52365;47.464;18.976;2023-06-22T01:53:23;8.60;;;4.87;;
65665;SDS011;52365;47.464;18.976;2023-06-22T01:53:45;9.52;;;4.62;;
65665;SDS011;52365;47.464;18.976;2023-06-22T01:54:08;10.07;;;4.43;;
65665;SDS011;52365;47.464;18.976;2023-06-22T01:54:29;8.75;;;4.12;;
65665;SDS011;52365;47.464;18.976;2023-06-22T01:54:50;9.23;;;4.53;;
65665;SDS011;52365;47.464;18.976;2023-06-22T01:55:11;8.90;;;4.45;;
65665;SDS011;52365;47.464;18.976;2023-06-22T01:55:32;9.48;;;4.40;;
65665;SDS011;52365;47.464;18.976;2023-06-22T01:55:53;9.65;;;4.50;;
65665;SDS011;52365;47.464;18.976;2023-06-22T01:56:16;9.07;;;4.47;;
65665;SDS011;52365;47.464;18.976;2023-06-22T01:56:38;10.02;;;4.75;;
65665;SDS011;52365;47.464;18.976;2023-06-22T01:57:00;8.32;;;4.82;;
65665;SDS011;52365;47.464;18.976;2023-06-22T01:57:21;8.63;;;4.70;;
65665;SDS011;52365;47.464;18.976;2023-06-22T01:57:42;8.75;;;4.55;;
65665;SDS011;52365;47.464;18.976;2023-06-22T01:58:03;9.48;;;4.43;;
65665;SDS011;52365;47.464;18.976;2023-06-22T01:58:25;9.38;;;4.40;;
65665;SDS011;52365;47.464;18.976;2023-06-22T01:58:55;8.50;;;4.20;;
65665;SDS011;52365;47.464;18.976;2023-06-22T02:00:02;9.60;;;4.82;;
65665;SDS011;52365;47.464;18.976;2023-06-22T02:00:25;7.03;;;4.57;;
65665;SDS011;52365;47.464;18.976;2023-06-22T02:00:53;10.30;;;4.62;;
65665;SDS011;52365;47.464;18.976;2023-06-22T02:01:20;8.77;;;4.22;;
65665;SDS011;52365;47.464;18.976;2023-06-22T02:01:50;11.18;;;4.32;;
65665;SDS011;52365;47.464;18.976;2023-06-22T02:02:20;7.75;;;4.50;;
65665;SDS011;52365;47.464;18.976;2023-06-22T02:03:34;8.27;;;4.18;;
65665;SDS011;52365;47.464;18.976;2023-06-22T02:04:08;11.35;;;4.35;;
65665;SDS011;52365;47.464;18.976;2023-06-22T02:04:34;12.07;;;4.93;;
65665;SDS011;52365;47.464;18.976;2023-06-22T02:05:02;8.48;;;4.45;;
65665;SDS011;52365;47.464;18.976;2023-06-22T02:05:29;9.30;;;4.60;;
65665;SDS011;52365;47.464;18.976;2023-06-22T02:06:06;10.45;;;4.40;;
65665;SDS011;52365;47.464;18.976;2023-06-22T02:06:31;8.38;;;4.15;;
65665;SDS011;52365;47.464;18.976;2023-06-22T02:06:56;9.25;;;4.30;;
65665;SDS011;52365;47.464;18.976;2023-06-22T02:07:20;10.45;;;4.50;;
65665;SDS011;52365;47.464;18.976;2023-06-22T02:07:46;10.07;;;4.30;;
65665;SDS011;52365;47.464;18.976;2023-06-22T02:08:16;8.05;;;4.03;;
65665;SDS011;52365;47.464;18.976;2023-06-22T02:08:41;7.90;;;4.37;;
65665;SDS011;52365;47.464;18.976;2023-06-22T02:09:16;11.40;;;4.53;;
65665;SDS011;52365;47.464;18.976;2023-06-22T02:09:41;9.10;;;4.65;;
65665;SDS011;52365;47.464;18.976;2023-06-22T02:10:05;8.90;;;4.72;;
65665;SDS011;52365;47.464;18.976;2023-06-22T02:10:28;8.40;;;4.60;;
65665;SDS011;52365;47.464;18.976;2023-06-22T02:10:53;8.60;;;4.55;;
65665;SDS011;52365;47.464;18.976;2023-06-22T02:11:16;7.62;;;4.87;;
65665;SDS011;52365;47.464;18.976;2023-06-22T02:11:41;8.68;;;4.43;;
65665;SDS011;52365;47.464;18.976;2023-06-22T02:12:05;7.20;;;4.07;;
65665;SDS011;52365;47.464;18.976;2023-06-22T02:12:28;7.12;;;4.12;;
65665;SDS011;52365;47.464;18.976;2023-06-22T02:12:51;7.75;;;4.20;;
65665;SDS011;52365;47.464;18.976;2023-06-22T02:13:13;8.10;;;4.15;;
65665;SDS011;52365;47.464;18.976;2023-06-22T02:13:36;7.93;;;4.12;;
65665;SDS011;52365;47.464;18.976;2023-06-22T02:13:58;8.05;;;4.15;;
65665;SDS011;52365;47.464;18.976;2023-06-22T02:14:19;8.52;;;4.07;;
65665;SDS011;52365;47.464;18.976;2023-06-22T02:14:41;7.68;;;4.20;;
65665;SDS011;52365;47.464;18.976;2023-06-22T02:15:03;8.13;;;4.30;;
65665;SDS011;52365;47.464;18.976;2023-06-22T02:15:25;7.80;;;4.35;;
65665;SDS011;52365;47.464;18.976;2023-06-22T02:15:47;9.45;;;4.40;;
65665;SDS011;52365;47.464;18.976;2023-06-22T02:16:10;8.95;;;4.22;;
65665;SDS011;52365;47.464;18.976;2023-06-22T02:16:33;8.52;;;4.12;;
65665;SDS011;52365;47.464;18.976;2023-06-22T02:16:54;8.57;;;4.32;;
65665;SDS011;52365;47.464;18.976;2023-06-22T02:17:16;9.95;;;4.37;;
65665;SDS011;52365;47.464;18.976;2023-06-22T02:17:38;9.35;;;4.43;;
65665;SDS011;52365;47.464;18.976;2023-06-22T02:17:59;9.63;;;4.65;;
65665;SDS011;52365;47.464;18.976;2023-06-22T02:18:21;9.45;;;4.40;;
65665;SDS011;52365;47.464;18.976;2023-06-22T02:18:46;9.18;;;4.28;;
65665;SDS011;52365;47.464;18.976;2023-06-22T02:19:08;6.95;;;4.03;;
65665;SDS011;52365;47.464;18.976;2023-06-22T02:19:29;7.65;;;4.30;;
65665;SDS011;52365;47.464;18.976;2023-06-22T02:19:53;12.25;;;4.12;;
65665;SDS011;52365;47.464;18.976;2023-06-22T02:20:14;11.12;;;4.68;;
65665;SDS011;52365;47.464;18.976;2023-06-22T02:20:36;8.38;;;4.28;;
65665;SDS011;52365;47.464;18.976;2023-06-22T02:20:58;8.18;;;4.00;;
65665;SDS011;52365;47.464;18.976;2023-06-22T02:21:20;8.73;;;4.18;;
65665;SDS011;52365;47.464;18.976;2023-06-22T02:21:41;10.02;;;4.57;;
65665;SDS011;52365;47.464;18.976;2023-06-22T02:22:03;8.95;;;4.35;;
65665;SDS011;52365;47.464;18.976;2023-06-22T02:22:24;9.25;;;4.30;;
65665;SDS011;52365;47.464;18.976;2023-06-22T02:22:45;10.05;;;4.18;;
65665;SDS011;52365;47.464;18.976;2023-06-22T02:23:06;8.05;;;4.22;;
65665;SDS011;52365;47.464;18.976;2023-06-22T02:23:28;9.65;;;4.70;;
65665;SDS011;52365;47.464;18.976;2023-06-22T02:23:49;9.90;;;4.50;;
65665;SDS011;52365;47.464;18.976;2023-06-22T02:24:10;8.63;;;4.37;;
65665;SDS011;52365;47.464;18.976;2023-06-22T02:24:31;9.70;;;4.20;;
65665;SDS011;52365;47.464;18.976;2023-06-22T02:24:53;10.02;;;4.45;;